sensor_id;sensor_type;location;lat;lon;timestamp;temperature;humidity
20815;DHT22;10568;48.176;16.316;2023-04-09T00:01:47;4.80;99.90
20815;DHT22;10568;48.176;16.316;2023-04-09T00:04:13;4.80;99.90
20815;DHT22;10568;48.176;16.316;2023-04-09T00:06:38;4.80;99.90
20815;DHT22;10568;48.176;16.316;2023-04-09T00:09:04;4.80;99.90
20815;DHT22;10568;48.176;16.316;2023-04-09T00:11:30;4.80;99.90
20815;DHT22;10568;48.176;16.316;2023-04-09T00:13:57;4.80;99.90
20815;DHT22;10568;48.176;16.316;2023-04-09T00:16:23;4.80;99.90
20815;DHT22;10568;48.176;16.316;2023-04-09T00:18:48;4.80;99.90
20815;DHT22;10568;48.176;16.316;2023-04-09T00:21:15;4.80;99.90
20815;DHT22;10568;48.176;16.316;2023-04-09T00:23:41;4.80;99.90
20815;DHT22;10568;48.176;16.316;2023-04-09T00:26:07;4.90;99.90
20815;DHT22;10568;48.176;16.316;2023-04-09T00:28:33;4.90;99.90
20815;DHT22;10568;48.176;16.316;2023-04-09T00:30:59;4.90;99.90
20815;DHT22;10568;48.176;16.316;2023-04-09T00:33:24;4.80;99.90
20815;DHT22;10568;48.176;16.316;2023-04-09T00:35:51;4.90;99.90
20815;DHT22;10568;48.176;16.316;2023-04-09T00:38:17;4.90;99.90
20815;DHT22;10568;48.176;16.316;2023-04-09T00:40:43;4.90;99.90
20815;DHT22;10568;48.176;16.316;2023-04-09T00:43:09;4.90;99.90
20815;DHT22;10568;48.176;16.316;2023-04-09T00:45:35;4.90;99.90
20815;DHT22;10568;48.176;16.316;2023-04-09T00:48:01;4.80;99.90
20815;DHT22;10568;48.176;16.316;2023-04-09T00:50:26;4.80;99.90
20815;DHT22;10568;48.176;16.316;2023-04-09T00:52:52;4.80;99.90
20815;DHT22;10568;48.176;16.316;2023-04-09T00:55:19;4.80;99.90
20815;DHT22;10568;48.176;16.316;2023-04-09T00:57:45;4.90;99.90
20815;DHT22;10568;48.176;16.316;2023-04-09T01:00:12;4.80;99.90
20815;DHT22;10568;48.176;16.316;2023-04-09T01:02:39;4.80;99.90
20815;DHT22;10568;48.176;16.316;2023-04-09T01:05:05;4.80;99.90
20815;DHT22;10568;48.176;16.316;2023-04-09T01:08:21;4.80;99.90
20815;DHT22;10568;48.176;16.316;2023-04-09T01:10:45;4.90;99.90
20815;DHT22;10568;48.176;16.316;2023-04-09T01:13:34;4.90;99.90
20815;DHT22;10568;48.176;16.316;2023-04-09T01:16:03;4.90;99.90
20815;DHT22;10568;48.176;16.316;2023-04-09T01:21:12;4.90;99.90
20815;DHT22;10568;48.176;16.316;2023-04-09T01:23:46;4.90;99.90
20815;DHT22;10568;48.176;16.316;2023-04-09T01:28:46;4.90;99.90
20815;DHT22;10568;48.176;16.316;2023-04-09T01:31:16;4.90;99.90
20815;DHT22;10568;48.176;16.316;2023-04-09T01:33:43;4.90;99.90
20815;DHT22;10568;48.176;16.316;2023-04-09T01:36:10;4.90;99.90
20815;DHT22;10568;48.176;16.316;2023-04-09T01:38:39;4.90;99.90
20815;DHT22;10568;48.176;16.316;2023-04-09T01:41:07;4.90;99.90
20815;DHT22;10568;48.176;16.316;2023-04-09T01:43:34;4.90;99.90
20815;DHT22;10568;48.176;16.316;2023-04-09T01:46:02;4.90;99.90
20815;DHT22;10568;48.176;16.316;2023-04-09T01:48:29;4.90;99.90
20815;DHT22;10568;48.176;16.316;2023-04-09T01:50:57;4.90;99.90
20815;DHT22;10568;48.176;16.316;2023-04-09T01:53:23;4.80;99.90
20815;DHT22;10568;48.176;16.316;2023-04-09T01:55:53;4.90;99.90
20815;DHT22;10568;48.176;16.316;2023-04-09T01:58:21;4.80;99.90
20815;DHT22;10568;48.176;16.316;2023-04-09T02:00:48;4.80;99.90
20815;DHT22;10568;48.176;16.316;2023-04-09T02:03:27;4.80;99.90
20815;DHT22;10568;48.176;16.316;2023-04-09T02:08:36;4.80;99.90
20815;DHT22;10568;48.176;16.316;2023-04-09T02:11:04;4.80;99.90
20815;DHT22;10568;48.176;16.316;2023-04-09T02:13:31;4.80;99.90
20815;DHT22;10568;48.176;16.316;2023-04-09T02:15:59;4.80;99.90
20815;DHT22;10568;48.176;16.316;2023-04-09T02:18:27;4.80;99.90
20815;DHT22;10568;48.176;16.316;2023-04-09T02:20:56;4.80;99.90
20815;DHT22;10568;48.176;16.316;2023-04-09T02:23:22;4.80;99.90
20815;DHT22;10568;48.176;16.316;2023-04-09T02:25:48;4.70;99.90
20815;DHT22;10568;48.176;16.316;2023-04-09T02:28:14;4.70;99.90
20815;DHT22;10568;48.176;16.316;2023-04-09T02:30:40;4.70;99.90
20815;DHT22;10568;48.176;16.316;2023-04-09T02:33:06;4.70;99.90
20815;DHT22;10568;48.176;16.316;2023-04-09T02:35:32;4.60;99.90
20815;DHT22;10568;48.176;16.316;2023-04-09T02:37:58;4.60;99.90
20815;DHT22;10568;48.176;16.316;2023-04-09T02:40:24;4.60;99.90
20815;DHT22;10568;48.176;16.316;2023-04-09T02:42:51;4.50;99.90
20815;DHT22;10568;48.176;16.316;2023-04-09T02:45:20;4.50;99.90
20815;DHT22;10568;48.176;16.316;2023-04-09T02:47:46;4.50;99.90
20815;DHT22;10568;48.176;16.316;2023-04-09T02:50:11;4.50;99.90
20815;DHT22;10568;48.176;16.316;2023-04-09T02:52:37;4.50;99.90
20815;DHT22;10568;48.176;16.316;2023-04-09T02:55:03;4.50;99.90
20815;DHT22;10568;48.176;16.316;2023-04-09T02:57:29;4.40;99.90
20815;DHT22;10568;48.176;16.316;2023-04-09T02:59:54;4.40;99.90
20815;DHT22;10568;48.176;16.316;2023-04-09T03:02:20;4.40;99.90
20815;DHT22;10568;48.176;16.316;2023-04-09T03:04:46;4.30;99.90
20815;DHT22;10568;48.176;16.316;2023-04-09T03:07:24;4.30;99.90
20815;DHT22;10568;48.176;16.316;2023-04-09T03:09:49;4.30;99.90
20815;DHT22;10568;48.176;16.316;2023-04-09T03:12:15;4.40;99.90
20815;DHT22;10568;48.176;16.316;2023-04-09T03:14:41;4.30;99.90
20815;DHT22;10568;48.176;16.316;2023-04-09T03:17:07;4.30;99.90
20815;DHT22;10568;48.176;16.316;2023-04-09T03:19:32;4.30;99.90
20815;DHT22;10568;48.176;16.316;2023-04-09T03:21:58;4.30;99.90
20815;DHT22;10568;48.176;16.316;2023-04-09T03:24:24;4.30;99.90
20815;DHT22;10568;48.176;16.316;2023-04-09T03:26:50;4.20;99.90
20815;DHT22;10568;48.176;16.316;2023-04-09T03:29:15;4.30;99.90
20815;DHT22;10568;48.176;16.316;2023-04-09T03:31:41;4.20;99.90
20815;DHT22;10568;48.176;16.316;2023-04-09T03:34:07;4.20;99.90
20815;DHT22;10568;48.176;16.316;2023-04-09T03:36:32;4.20;99.90
20815;DHT22;10568;48.176;16.316;2023-04-09T03:38:58;4.20;99.90
20815;DHT22;10568;48.176;16.316;2023-04-09T03:41:25;4.10;99.90
20815;DHT22;10568;48.176;16.316;2023-04-09T03:43:51;4.10;99.90
20815;DHT22;10568;48.176;16.316;2023-04-09T03:46:17;4.10;99.90
20815;DHT22;10568;48.176;16.316;2023-04-09T03:48:43;4.10;99.90
20815;DHT22;10568;48.176;16.316;2023-04-09T03:51:14;4.10;99.90
20815;DHT22;10568;48.176;16.316;2023-04-09T03:53:40;4.10;99.90
20815;DHT22;10568;48.176;16.316;2023-04-09T03:56:07;4.10;99.90
20815;DHT22;10568;48.176;16.316;2023-04-09T03:58:33;4.10;99.90
20815;DHT22;10568;48.176;16.316;2023-04-09T04:00:59;4.10;99.90
20815;DHT22;10568;48.176;16.316;2023-04-09T04:03:37;4.10;99.90
20815;DHT22;10568;48.176;16.316;2023-04-09T04:06:03;4.10;99.90
20815;DHT22;10568;48.176;16.316;2023-04-09T04:08:29;4.10;99.90
20815;DHT22;10568;48.176;16.316;2023-04-09T04:10:55;4.20;99.90
20815;DHT22;10568;48.176;16.316;2023-04-09T04:13:21;4.20;99.90
20815;DHT22;10568;48.176;16.316;2023-04-09T04:15:46;4.20;99.90
20815;DHT22;10568;48.176;16.316;2023-04-09T04:18:12;4.20;99.90
20815;DHT22;10568;48.176;16.316;2023-04-09T04:20:38;4.20;99.90
20815;DHT22;10568;48.176;16.316;2023-04-09T04:23:04;4.20;99.90
20815;DHT22;10568;48.176;16.316;2023-04-09T04:25:30;4.20;99.90
20815;DHT22;10568;48.176;16.316;2023-04-09T04:27:56;4.20;99.90
20815;DHT22;10568;48.176;16.316;2023-04-09T04:30:22;4.20;99.90
20815;DHT22;10568;48.176;16.316;2023-04-09T04:32:48;4.30;99.90
20815;DHT22;10568;48.176;16.316;2023-04-09T04:35:14;4.30;99.90
20815;DHT22;10568;48.176;16.316;2023-04-09T04:37:40;4.30;99.90
20815;DHT22;10568;48.176;16.316;2023-04-09T04:40:07;4.30;99.90
20815;DHT22;10568;48.176;16.316;2023-04-09T04:42:33;4.30;99.90
20815;DHT22;10568;48.176;16.316;2023-04-09T04:44:59;4.40;99.90
20815;DHT22;10568;48.176;16.316;2023-04-09T04:47:25;4.40;99.90
20815;DHT22;10568;48.176;16.316;2023-04-09T04:49:51;4.40;99.90
20815;DHT22;10568;48.176;16.316;2023-04-09T04:52:17;4.40;99.90
20815;DHT22;10568;48.176;16.316;2023-04-09T04:54:42;4.40;99.90
20815;DHT22;10568;48.176;16.316;2023-04-09T04:57:08;4.50;99.90
20815;DHT22;10568;48.176;16.316;2023-04-09T04:59:37;4.50;99.90
20815;DHT22;10568;48.176;16.316;2023-04-09T05:02:05;4.50;99.90
20815;DHT22;10568;48.176;16.316;2023-04-09T05:04:30;4.50;99.90
20815;DHT22;10568;48.176;16.316;2023-04-09T05:06:59;4.50;99.90
20815;DHT22;10568;48.176;16.316;2023-04-09T05:09:26;4.50;99.90
20815;DHT22;10568;48.176;16.316;2023-04-09T05:11:51;4.50;99.90
20815;DHT22;10568;48.176;16.316;2023-04-09T05:14:17;4.50;99.90
20815;DHT22;10568;48.176;16.316;2023-04-09T05:16:45;4.60;99.90
20815;DHT22;10568;48.176;16.316;2023-04-09T05:19:11;4.60;99.90
20815;DHT22;10568;48.176;16.316;2023-04-09T05:21:37;4.70;99.90
20815;DHT22;10568;48.176;16.316;2023-04-09T05:24:03;4.70;99.90
20815;DHT22;10568;48.176;16.316;2023-04-09T05:26:29;4.70;99.90
20815;DHT22;10568;48.176;16.316;2023-04-09T05:28:54;4.70;99.90
20815;DHT22;10568;48.176;16.316;2023-04-09T05:31:20;4.80;99.90
20815;DHT22;10568;48.176;16.316;2023-04-09T05:33:46;4.80;99.90
20815;DHT22;10568;48.176;16.316;2023-04-09T05:36:31;4.90;99.90
20815;DHT22;10568;48.176;16.316;2023-04-09T05:38:56;4.90;99.90
20815;DHT22;10568;48.176;16.316;2023-04-09T05:41:22;5.00;99.90
20815;DHT22;10568;48.176;16.316;2023-04-09T05:43:48;5.00;99.90
20815;DHT22;10568;48.176;16.316;2023-04-09T05:46:13;5.00;99.90
20815;DHT22;10568;48.176;16.316;2023-04-09T05:48:39;5.10;99.90
20815;DHT22;10568;48.176;16.316;2023-04-09T05:51:05;5.10;99.90
20815;DHT22;10568;48.176;16.316;2023-04-09T05:53:32;5.10;99.90
20815;DHT22;10568;48.176;16.316;2023-04-09T05:55:58;5.20;99.90
20815;DHT22;10568;48.176;16.316;2023-04-09T05:58:24;5.30;99.90
20815;DHT22;10568;48.176;16.316;2023-04-09T06:00:49;5.30;99.90
20815;DHT22;10568;48.176;16.316;2023-04-09T06:03:16;5.30;99.90
20815;DHT22;10568;48.176;16.316;2023-04-09T06:05:44;5.30;99.90
20815;DHT22;10568;48.176;16.316;2023-04-09T06:08:11;5.40;99.90
20815;DHT22;10568;48.176;16.316;2023-04-09T06:10:46;5.50;99.90
20815;DHT22;10568;48.176;16.316;2023-04-09T06:13:12;5.60;99.90
20815;DHT22;10568;48.176;16.316;2023-04-09T06:15:38;5.80;99.90
20815;DHT22;10568;48.176;16.316;2023-04-09T06:18:04;5.90;99.90
20815;DHT22;10568;48.176;16.316;2023-04-09T06:20:29;6.00;99.90
20815;DHT22;10568;48.176;16.316;2023-04-09T06:22:55;6.10;99.90
20815;DHT22;10568;48.176;16.316;2023-04-09T06:25:21;6.10;99.90
20815;DHT22;10568;48.176;16.316;2023-04-09T06:27:47;6.20;99.90
20815;DHT22;10568;48.176;16.316;2023-04-09T06:30:12;6.20;99.90
20815;DHT22;10568;48.176;16.316;2023-04-09T06:32:38;6.20;99.90
20815;DHT22;10568;48.176;16.316;2023-04-09T06:35:04;6.30;99.90
20815;DHT22;10568;48.176;16.316;2023-04-09T06:37:33;6.30;99.90
20815;DHT22;10568;48.176;16.316;2023-04-09T06:39:59;6.30;99.90
20815;DHT22;10568;48.176;16.316;2023-04-09T06:42:24;6.40;99.90
20815;DHT22;10568;48.176;16.316;2023-04-09T06:44:51;6.50;99.90
20815;DHT22;10568;48.176;16.316;2023-04-09T06:47:17;6.50;99.90
20815;DHT22;10568;48.176;16.316;2023-04-09T06:49:42;6.60;99.90
20815;DHT22;10568;48.176;16.316;2023-04-09T06:52:08;6.70;99.90
20815;DHT22;10568;48.176;16.316;2023-04-09T06:54:34;6.70;99.90
20815;DHT22;10568;48.176;16.316;2023-04-09T06:57:00;6.80;99.90
20815;DHT22;10568;48.176;16.316;2023-04-09T06:59:25;6.90;99.90
20815;DHT22;10568;48.176;16.316;2023-04-09T07:01:51;7.00;99.90
20815;DHT22;10568;48.176;16.316;2023-04-09T07:04:17;7.00;99.90
20815;DHT22;10568;48.176;16.316;2023-04-09T07:06:43;7.20;99.90
20815;DHT22;10568;48.176;16.316;2023-04-09T07:09:09;6.40;99.90
20815;DHT22;10568;48.176;16.316;2023-04-09T07:11:35;7.50;99.90
20815;DHT22;10568;48.176;16.316;2023-04-09T07:14:01;7.70;99.90
20815;DHT22;10568;48.176;16.316;2023-04-09T07:16:27;7.90;99.90
20815;DHT22;10568;48.176;16.316;2023-04-09T07:18:52;7.80;99.90
20815;DHT22;10568;48.176;16.316;2023-04-09T07:21:19;7.90;99.90
20815;DHT22;10568;48.176;16.316;2023-04-09T07:23:45;7.80;99.90
20815;DHT22;10568;48.176;16.316;2023-04-09T07:26:11;7.80;99.90
20815;DHT22;10568;48.176;16.316;2023-04-09T07:28:37;7.80;99.90
20815;DHT22;10568;48.176;16.316;2023-04-09T07:31:02;7.90;99.90
20815;DHT22;10568;48.176;16.316;2023-04-09T07:33:28;8.00;99.90
20815;DHT22;10568;48.176;16.316;2023-04-09T07:35:54;8.20;99.90
20815;DHT22;10568;48.176;16.316;2023-04-09T07:38:21;8.20;99.90
20815;DHT22;10568;48.176;16.316;2023-04-09T07:40:47;9.00;99.90
20815;DHT22;10568;48.176;16.316;2023-04-09T07:48:05;8.10;99.90
20815;DHT22;10568;48.176;16.316;2023-04-09T07:50:33;8.10;99.90
20815;DHT22;10568;48.176;16.316;2023-04-09T07:52:59;8.10;99.90
20815;DHT22;10568;48.176;16.316;2023-04-09T07:55:25;8.00;99.90
20815;DHT22;10568;48.176;16.316;2023-04-09T07:57:50;7.90;99.90
20815;DHT22;10568;48.176;16.316;2023-04-09T08:00:17;7.90;99.90
20815;DHT22;10568;48.176;16.316;2023-04-09T08:02:43;7.90;99.90
20815;DHT22;10568;48.176;16.316;2023-04-09T08:05:08;8.00;99.90
20815;DHT22;10568;48.176;16.316;2023-04-09T08:07:34;8.00;99.90
20815;DHT22;10568;48.176;16.316;2023-04-09T08:10:01;8.10;99.90
20815;DHT22;10568;48.176;16.316;2023-04-09T08:12:27;8.10;99.90
20815;DHT22;10568;48.176;16.316;2023-04-09T08:14:53;8.10;99.90
20815;DHT22;10568;48.176;16.316;2023-04-09T08:17:18;8.10;99.90
20815;DHT22;10568;48.176;16.316;2023-04-09T08:19:44;8.30;99.90
20815;DHT22;10568;48.176;16.316;2023-04-09T08:22:10;8.30;99.90
20815;DHT22;10568;48.176;16.316;2023-04-09T08:24:36;8.40;99.90
20815;DHT22;10568;48.176;16.316;2023-04-09T08:27:03;8.40;99.90
20815;DHT22;10568;48.176;16.316;2023-04-09T08:29:29;8.40;99.90
20815;DHT22;10568;48.176;16.316;2023-04-09T08:31:56;8.50;99.90
20815;DHT22;10568;48.176;16.316;2023-04-09T08:34:22;8.50;99.90
20815;DHT22;10568;48.176;16.316;2023-04-09T08:36:47;8.50;99.90
20815;DHT22;10568;48.176;16.316;2023-04-09T08:39:15;8.60;99.90
20815;DHT22;10568;48.176;16.316;2023-04-09T08:41:44;9.00;99.90
20815;DHT22;10568;48.176;16.316;2023-04-09T08:44:10;9.20;99.90
20815;DHT22;10568;48.176;16.316;2023-04-09T08:46:36;9.20;99.90
20815;DHT22;10568;48.176;16.316;2023-04-09T08:49:02;9.20;99.90
20815;DHT22;10568;48.176;16.316;2023-04-09T08:51:28;9.20;99.90
20815;DHT22;10568;48.176;16.316;2023-04-09T08:54:01;9.30;99.90
20815;DHT22;10568;48.176;16.316;2023-04-09T08:56:27;9.30;99.90
20815;DHT22;10568;48.176;16.316;2023-04-09T08:58:54;9.40;99.90
20815;DHT22;10568;48.176;16.316;2023-04-09T09:01:30;9.30;99.90
20815;DHT22;10568;48.176;16.316;2023-04-09T09:06:27;9.50;99.90
20815;DHT22;10568;48.176;16.316;2023-04-09T09:11:29;9.50;99.90
20815;DHT22;10568;48.176;16.316;2023-04-09T09:14:22;9.20;99.90
20815;DHT22;10568;48.176;16.316;2023-04-09T09:21:59;9.10;99.90
20815;DHT22;10568;48.176;16.316;2023-04-09T09:24:25;8.80;99.90
20815;DHT22;10568;48.176;16.316;2023-04-09T09:26:51;8.70;99.90
20815;DHT22;10568;48.176;16.316;2023-04-09T09:29:17;8.50;99.90
20815;DHT22;10568;48.176;16.316;2023-04-09T09:31:52;8.60;99.90
20815;DHT22;10568;48.176;16.316;2023-04-09T09:34:19;8.80;99.90
20815;DHT22;10568;48.176;16.316;2023-04-09T09:36:46;9.00;99.90
20815;DHT22;10568;48.176;16.316;2023-04-09T09:39:13;9.40;99.90
20815;DHT22;10568;48.176;16.316;2023-04-09T09:41:40;9.50;99.90
20815;DHT22;10568;48.176;16.316;2023-04-09T09:44:07;9.70;99.90
20815;DHT22;10568;48.176;16.316;2023-04-09T09:46:40;9.80;99.90
20815;DHT22;10568;48.176;16.316;2023-04-09T09:49:07;10.20;99.90
20815;DHT22;10568;48.176;16.316;2023-04-09T09:51:38;10.30;99.90
20815;DHT22;10568;48.176;16.316;2023-04-09T09:54:06;10.30;99.90
20815;DHT22;10568;48.176;16.316;2023-04-09T09:56:35;10.20;99.90
20815;DHT22;10568;48.176;16.316;2023-04-09T10:01:32;10.40;99.90
20815;DHT22;10568;48.176;16.316;2023-04-09T10:04:01;10.80;99.90
20815;DHT22;10568;48.176;16.316;2023-04-09T10:06:29;10.80;99.90
20815;DHT22;10568;48.176;16.316;2023-04-09T10:09:02;11.00;99.90
20815;DHT22;10568;48.176;16.316;2023-04-09T10:11:30;11.10;99.90
20815;DHT22;10568;48.176;16.316;2023-04-09T10:13:57;11.20;99.90
20815;DHT22;10568;48.176;16.316;2023-04-09T10:16:24;11.20;99.90
20815;DHT22;10568;48.176;16.316;2023-04-09T10:19:06;11.00;99.90
20815;DHT22;10568;48.176;16.316;2023-04-09T10:21:52;11.30;99.90
20815;DHT22;10568;48.176;16.316;2023-04-09T10:26:47;11.70;99.90
20815;DHT22;10568;48.176;16.316;2023-04-09T10:29:14;11.70;99.90
20815;DHT22;10568;48.176;16.316;2023-04-09T10:34:17;11.60;99.90
20815;DHT22;10568;48.176;16.316;2023-04-09T10:36:50;11.90;99.90
20815;DHT22;10568;48.176;16.316;2023-04-09T10:39:19;12.10;99.90
20815;DHT22;10568;48.176;16.316;2023-04-09T10:41:46;11.80;99.90
20815;DHT22;10568;48.176;16.316;2023-04-09T10:44:20;12.20;99.90
20815;DHT22;10568;48.176;16.316;2023-04-09T10:46:47;12.50;99.90
20815;DHT22;10568;48.176;16.316;2023-04-09T10:49:21;12.50;99.90
20815;DHT22;10568;48.176;16.316;2023-04-09T10:52:07;12.50;99.90
20815;DHT22;10568;48.176;16.316;2023-04-09T10:54:45;12.30;99.90
20815;DHT22;10568;48.176;16.316;2023-04-09T10:57:12;12.30;99.90
20815;DHT22;10568;48.176;16.316;2023-04-09T10:59:41;12.70;99.90
20815;DHT22;10568;48.176;16.316;2023-04-09T11:08:12;13.40;99.90
20815;DHT22;10568;48.176;16.316;2023-04-09T11:10:42;13.00;99.90
20815;DHT22;10568;48.176;16.316;2023-04-09T11:13:16;13.40;99.90
20815;DHT22;10568;48.176;16.316;2023-04-09T11:15:43;13.50;99.90
20815;DHT22;10568;48.176;16.316;2023-04-09T11:18:19;13.30;99.90
20815;DHT22;10568;48.176;16.316;2023-04-09T11:20:46;13.20;99.90
20815;DHT22;10568;48.176;16.316;2023-04-09T11:23:14;13.10;99.90
20815;DHT22;10568;48.176;16.316;2023-04-09T11:25:40;12.80;99.90
20815;DHT22;10568;48.176;16.316;2023-04-09T11:28:06;12.10;99.90
20815;DHT22;10568;48.176;16.316;2023-04-09T11:30:33;11.70;99.90
20815;DHT22;10568;48.176;16.316;2023-04-09T11:32:59;11.40;99.90
20815;DHT22;10568;48.176;16.316;2023-04-09T11:35:26;11.30;99.90
20815;DHT22;10568;48.176;16.316;2023-04-09T11:37:52;11.10;99.90
20815;DHT22;10568;48.176;16.316;2023-04-09T11:40:21;11.10;99.90
20815;DHT22;10568;48.176;16.316;2023-04-09T11:42:51;10.70;99.90
20815;DHT22;10568;48.176;16.316;2023-04-09T11:45:19;10.50;99.90
20815;DHT22;10568;48.176;16.316;2023-04-09T11:47:46;10.80;99.90
20815;DHT22;10568;48.176;16.316;2023-04-09T11:50:13;10.80;99.90
20815;DHT22;10568;48.176;16.316;2023-04-09T11:52:40;10.80;99.90
20815;DHT22;10568;48.176;16.316;2023-04-09T11:55:26;10.80;99.90
20815;DHT22;10568;48.176;16.316;2023-04-09T11:57:59;11.10;99.90
20815;DHT22;10568;48.176;16.316;2023-04-09T12:02:32;11.60;99.90
20815;DHT22;10568;48.176;16.316;2023-04-09T12:05:02;11.50;99.90
20815;DHT22;10568;48.176;16.316;2023-04-09T12:07:32;12.10;99.90
20815;DHT22;10568;48.176;16.316;2023-04-09T12:15:48;12.10;99.90
20815;DHT22;10568;48.176;16.316;2023-04-09T12:18:14;12.20;99.90
20815;DHT22;10568;48.176;16.316;2023-04-09T12:20:41;12.10;99.90
20815;DHT22;10568;48.176;16.316;2023-04-09T12:23:09;12.10;99.90
20815;DHT22;10568;48.176;16.316;2023-04-09T12:25:36;12.00;99.90
20815;DHT22;10568;48.176;16.316;2023-04-09T12:28:07;12.30;99.90
20815;DHT22;10568;48.176;16.316;2023-04-09T12:30:34;12.60;99.90
20815;DHT22;10568;48.176;16.316;2023-04-09T12:33:00;12.60;99.90
20815;DHT22;10568;48.176;16.316;2023-04-09T12:35:27;12.80;99.90
20815;DHT22;10568;48.176;16.316;2023-04-09T12:37:52;12.50;99.90
20815;DHT22;10568;48.176;16.316;2023-04-09T12:43:33;12.60;99.90
20815;DHT22;10568;48.176;16.316;2023-04-09T12:45:59;12.50;99.90
20815;DHT22;10568;48.176;16.316;2023-04-09T12:48:25;12.60;99.90
20815;DHT22;10568;48.176;16.316;2023-04-09T12:50:51;12.50;99.90
20815;DHT22;10568;48.176;16.316;2023-04-09T12:53:16;12.30;99.90
20815;DHT22;10568;48.176;16.316;2023-04-09T12:55:42;12.40;99.90
20815;DHT22;10568;48.176;16.316;2023-04-09T12:58:08;12.30;99.90
20815;DHT22;10568;48.176;16.316;2023-04-09T13:00:34;11.90;99.90
20815;DHT22;10568;48.176;16.316;2023-04-09T13:02:59;11.90;99.90
20815;DHT22;10568;48.176;16.316;2023-04-09T13:05:25;11.80;99.90
20815;DHT22;10568;48.176;16.316;2023-04-09T13:07:51;11.70;99.90
20815;DHT22;10568;48.176;16.316;2023-04-09T13:10:17;11.50;99.90
20815;DHT22;10568;48.176;16.316;2023-04-09T13:12:42;11.40;99.90
20815;DHT22;10568;48.176;16.316;2023-04-09T13:15:08;11.20;99.90
20815;DHT22;10568;48.176;16.316;2023-04-09T13:17:34;11.20;99.90
20815;DHT22;10568;48.176;16.316;2023-04-09T13:20:00;11.00;99.90
20815;DHT22;10568;48.176;16.316;2023-04-09T13:22:26;10.90;99.90
20815;DHT22;10568;48.176;16.316;2023-04-09T13:24:51;10.80;99.90
20815;DHT22;10568;48.176;16.316;2023-04-09T13:27:17;10.80;99.90
20815;DHT22;10568;48.176;16.316;2023-04-09T13:29:43;10.70;99.90
20815;DHT22;10568;48.176;16.316;2023-04-09T13:32:08;10.60;99.90
20815;DHT22;10568;48.176;16.316;2023-04-09T13:34:35;10.60;99.90
20815;DHT22;10568;48.176;16.316;2023-04-09T13:37:01;10.70;99.90
20815;DHT22;10568;48.176;16.316;2023-04-09T13:39:27;10.70;99.90
20815;DHT22;10568;48.176;16.316;2023-04-09T13:41:53;10.70;99.90
20815;DHT22;10568;48.176;16.316;2023-04-09T13:44:20;10.70;99.90
20815;DHT22;10568;48.176;16.316;2023-04-09T13:46:46;10.90;99.90
20815;DHT22;10568;48.176;16.316;2023-04-09T13:49:12;11.00;99.90
20815;DHT22;10568;48.176;16.316;2023-04-09T13:51:37;11.00;99.90
20815;DHT22;10568;48.176;16.316;2023-04-09T13:54:03;11.00;99.90
20815;DHT22;10568;48.176;16.316;2023-04-09T13:56:29;11.10;99.90
20815;DHT22;10568;48.176;16.316;2023-04-09T13:58:55;11.20;99.90
20815;DHT22;10568;48.176;16.316;2023-04-09T14:01:21;11.10;99.90
20815;DHT22;10568;48.176;16.316;2023-04-09T14:03:47;11.20;99.90
20815;DHT22;10568;48.176;16.316;2023-04-09T14:06:12;11.20;99.90
20815;DHT22;10568;48.176;16.316;2023-04-09T14:08:38;11.20;99.90
20815;DHT22;10568;48.176;16.316;2023-04-09T14:11:04;11.20;99.90
20815;DHT22;10568;48.176;16.316;2023-04-09T14:13:30;11.30;99.90
20815;DHT22;10568;48.176;16.316;2023-04-09T14:15:56;11.20;99.90
20815;DHT22;10568;48.176;16.316;2023-04-09T14:18:22;11.10;99.90
20815;DHT22;10568;48.176;16.316;2023-04-09T14:20:47;11.10;99.90
20815;DHT22;10568;48.176;16.316;2023-04-09T14:23:13;11.30;99.90
20815;DHT22;10568;48.176;16.316;2023-04-09T14:25:39;11.50;99.90
20815;DHT22;10568;48.176;16.316;2023-04-09T14:28:05;11.50;99.90
20815;DHT22;10568;48.176;16.316;2023-04-09T14:30:31;11.60;99.90
20815;DHT22;10568;48.176;16.316;2023-04-09T14:32:56;11.70;99.90
20815;DHT22;10568;48.176;16.316;2023-04-09T14:35:22;11.70;99.90
20815;DHT22;10568;48.176;16.316;2023-04-09T14:37:48;11.70;99.90
20815;DHT22;10568;48.176;16.316;2023-04-09T14:40:13;11.70;99.90
20815;DHT22;10568;48.176;16.316;2023-04-09T14:42:40;11.80;99.90
20815;DHT22;10568;48.176;16.316;2023-04-09T14:45:06;11.60;99.90
20815;DHT22;10568;48.176;16.316;2023-04-09T14:47:32;11.60;99.90
20815;DHT22;10568;48.176;16.316;2023-04-09T14:49:57;11.60;99.90
20815;DHT22;10568;48.176;16.316;2023-04-09T14:52:23;11.50;99.90
20815;DHT22;10568;48.176;16.316;2023-04-09T14:54:49;11.50;99.90
20815;DHT22;10568;48.176;16.316;2023-04-09T14:57:15;11.50;99.90
20815;DHT22;10568;48.176;16.316;2023-04-09T14:59:41;11.40;99.90
20815;DHT22;10568;48.176;16.316;2023-04-09T15:02:06;11.30;99.90
20815;DHT22;10568;48.176;16.316;2023-04-09T15:04:32;11.20;99.90
20815;DHT22;10568;48.176;16.316;2023-04-09T15:06:58;10.80;99.90
20815;DHT22;10568;48.176;16.316;2023-04-09T15:09:23;10.90;99.90
20815;DHT22;10568;48.176;16.316;2023-04-09T15:11:49;10.70;99.90
20815;DHT22;10568;48.176;16.316;2023-04-09T15:14:15;10.70;99.90
20815;DHT22;10568;48.176;16.316;2023-04-09T15:16:40;10.70;99.90
20815;DHT22;10568;48.176;16.316;2023-04-09T15:19:06;10.70;99.90
20815;DHT22;10568;48.176;16.316;2023-04-09T15:21:32;10.70;99.90
20815;DHT22;10568;48.176;16.316;2023-04-09T15:23:57;10.60;99.90
20815;DHT22;10568;48.176;16.316;2023-04-09T15:26:26;10.80;99.90
20815;DHT22;10568;48.176;16.316;2023-04-09T15:29:00;10.70;99.90
20815;DHT22;10568;48.176;16.316;2023-04-09T15:31:29;10.70;99.90
20815;DHT22;10568;48.176;16.316;2023-04-09T15:33:55;10.70;99.90
20815;DHT22;10568;48.176;16.316;2023-04-09T15:36:20;10.80;99.90
20815;DHT22;10568;48.176;16.316;2023-04-09T15:38:46;10.80;99.90
20815;DHT22;10568;48.176;16.316;2023-04-09T15:41:12;10.80;99.90
20815;DHT22;10568;48.176;16.316;2023-04-09T15:43:41;10.80;99.90
20815;DHT22;10568;48.176;16.316;2023-04-09T15:46:09;10.80;99.90
20815;DHT22;10568;48.176;16.316;2023-04-09T15:48:35;10.80;99.90
20815;DHT22;10568;48.176;16.316;2023-04-09T15:51:01;10.70;99.90
20815;DHT22;10568;48.176;16.316;2023-04-09T15:53:26;10.60;99.90
20815;DHT22;10568;48.176;16.316;2023-04-09T15:55:53;10.40;99.90
20815;DHT22;10568;48.176;16.316;2023-04-09T15:58:19;10.30;99.90
20815;DHT22;10568;48.176;16.316;2023-04-09T16:00:45;10.20;99.90
20815;DHT22;10568;48.176;16.316;2023-04-09T16:03:11;10.10;99.90
20815;DHT22;10568;48.176;16.316;2023-04-09T16:05:37;10.00;99.90
20815;DHT22;10568;48.176;16.316;2023-04-09T16:08:03;9.90;99.90
20815;DHT22;10568;48.176;16.316;2023-04-09T16:10:29;9.80;99.90
20815;DHT22;10568;48.176;16.316;2023-04-09T16:12:55;9.70;99.90